createdAt,value
2019-01-02T00:02:11.167Z,63.04
2019-01-02T00:04:44.565Z,63.13
2019-01-02T00:07:16.636Z,63.25
2019-01-02T00:09:47.810Z,63.33
2019-01-02T00:12:20.329Z,63.38
2019-01-02T00:14:51.619Z,63.43
2019-01-02T00:17:22.823Z,63.49
2019-01-02T00:19:54.447Z,63.51
2019-01-02T00:22:25.668Z,63.61
2019-01-02T00:24:56.870Z,63.59
2019-01-02T00:27:28.064Z,63.66
2019-01-02T00:29:59.200Z,63.66
2019-01-02T00:32:30.366Z,63.70
2019-01-02T00:35:01.559Z,63.71
2019-01-02T00:37:32.723Z,63.78
2019-01-02T00:40:04.315Z,63.83
2019-01-02T00:42:35.881Z,63.93
2019-01-02T00:45:08.140Z,63.96
2019-01-02T00:47:39.727Z,64.01
2019-01-02T00:50:12.163Z,64.10
2019-01-02T00:52:43.359Z,64.08
2019-01-02T00:55:14.647Z,64.17
2019-01-02T00:57:45.839Z,64.15
2019-01-02T01:00:20.517Z,64.26
2019-01-02T01:02:51.992Z,64.22
2019-01-02T01:05:24.283Z,64.24
2019-01-02T01:07:55.458Z,64.29
2019-01-02T01:10:26.642Z,64.25
2019-01-02T01:12:57.911Z,64.28
2019-01-02T01:15:29.175Z,64.26
2019-01-02T01:18:00.342Z,64.31
2019-01-02T01:20:31.574Z,64.27
2019-01-02T01:23:02.685Z,64.27
2019-01-02T01:25:34.391Z,64.25
2019-01-02T01:28:05.586Z,64.25
2019-01-02T01:30:36.829Z,64.21
2019-01-02T01:33:08.393Z,64.20
2019-01-02T01:35:39.828Z,64.15
2019-01-02T01:38:11.019Z,64.16
2019-01-02T01:40:42.664Z,64.17
2019-01-02T01:43:15.070Z,64.19
2019-01-02T01:45:46.283Z,64.21
2019-01-02T01:48:17.468Z,64.24
2019-01-02T01:50:48.654Z,64.18
2019-01-02T01:53:20.273Z,64.17
2019-01-02T01:55:51.508Z,64.19
2019-01-02T01:58:22.650Z,64.17
2019-01-02T02:00:54.021Z,64.15
2019-01-02T02:03:25.202Z,64.17
2019-01-02T02:05:56.409Z,64.12
2019-01-02T02:08:28.064Z,64.12
2019-01-02T02:10:59.307Z,64.11
2019-01-02T02:13:30.611Z,64.12
2019-01-02T02:16:01.754Z,64.14
2019-01-02T02:18:32.999Z,64.12
2019-01-02T02:21:04.474Z,64.12
2019-01-02T02:23:35.745Z,64.13
2019-01-02T02:26:06.985Z,64.15
2019-01-02T02:28:38.602Z,64.14
2019-01-02T02:31:10.279Z,64.16
2019-01-02T02:33:41.873Z,64.15
2019-01-02T02:36:13.478Z,64.17
2019-01-02T02:38:44.983Z,64.16
2019-01-02T02:41:16.267Z,64.14
2019-01-02T02:43:48.021Z,64.08
2019-01-02T02:46:19.235Z,64.07
2019-01-02T02:48:50.415Z,64.03
2019-01-02T02:51:22.015Z,63.99
2019-01-02T02:53:53.632Z,63.96
2019-01-02T02:56:25.190Z,63.98
2019-01-02T02:58:56.669Z,63.97
2019-01-02T03:01:28.345Z,63.95
2019-01-02T03:03:59.901Z,63.93
2019-01-02T03:06:31.487Z,63.92
2019-01-02T03:09:03.118Z,63.85
2019-01-02T03:11:35.680Z,63.83
2019-01-02T03:14:06.909Z,63.75
2019-01-02T03:16:38.941Z,63.70
2019-01-02T03:19:10.624Z,63.65
2019-01-02T03:21:42.207Z,63.63
2019-01-02T03:24:13.736Z,63.61
2019-01-02T03:26:45.009Z,63.59
2019-01-02T03:29:16.329Z,63.43
2019-01-02T03:31:47.844Z,63.40
2019-01-02T03:34:19.425Z,63.34
2019-01-02T03:36:50.965Z,63.32
2019-01-02T03:39:23.227Z,63.30
2019-01-02T03:41:54.639Z,63.23
2019-01-02T03:44:25.825Z,63.29
2019-01-02T03:46:57.006Z,63.25
2019-01-02T03:49:28.315Z,63.21
2019-01-02T03:51:59.464Z,63.08
2019-01-02T03:54:30.690Z,63.03
2019-01-02T03:57:01.966Z,63.04
2019-01-02T03:59:33.335Z,62.99
2019-01-02T04:02:04.609Z,62.78
2019-01-02T04:04:35.910Z,62.76
2019-01-02T04:07:07.139Z,62.74
2019-01-02T04:09:38.310Z,62.62
2019-01-02T04:12:09.486Z,62.50
2019-01-02T04:14:40.690Z,62.36
2019-01-02T04:17:11.884Z,62.20
2019-01-02T04:19:43.056Z,62.34
2019-01-02T04:22:14.252Z,62.27
2019-01-02T04:24:45.489Z,62.04
2019-01-02T04:27:16.679Z,62.08
2019-01-02T04:29:47.907Z,62.05
2019-01-02T04:32:19.158Z,61.86
2019-01-02T04:34:50.444Z,61.78
2019-01-02T04:37:21.594Z,61.81
2019-01-02T04:39:52.896Z,61.49
2019-01-02T04:42:24.100Z,61.42
2019-01-02T04:44:55.344Z,61.26
2019-01-02T04:47:26.491Z,61.19
2019-01-02T04:49:57.793Z,60.87
2019-01-02T04:52:29.030Z,60.91
2019-01-02T04:55:00.216Z,60.61
2019-01-02T04:57:31.493Z,60.81
2019-01-02T05:00:02.638Z,60.86
2019-01-02T05:02:34.960Z,60.68
2019-01-02T05:05:06.427Z,60.55
2019-01-02T05:07:37.721Z,60.55
2019-01-02T05:10:10.431Z,60.29
2019-01-02T05:12:41.663Z,60.46
2019-01-02T05:15:12.909Z,60.17
2019-01-02T05:17:44.042Z,60.26
2019-01-02T05:20:16.400Z,59.83
2019-01-02T05:22:47.639Z,60.00
2019-01-02T05:25:18.852Z,60.09
2019-01-02T05:27:50.120Z,59.92
2019-01-02T05:30:21.261Z,59.85
2019-01-02T05:32:52.498Z,59.74
2019-01-02T05:35:23.611Z,59.94
2019-01-02T05:37:54.837Z,59.72
2019-01-02T05:40:26.512Z,59.69
2019-01-02T05:42:57.708Z,59.38
2019-01-02T05:45:28.914Z,59.53
2019-01-02T05:48:00.064Z,59.38
2019-01-02T05:50:31.285Z,59.57
2019-01-02T05:53:02.473Z,59.35
2019-01-02T05:55:33.598Z,59.23
2019-01-02T05:58:04.820Z,59.35
2019-01-02T06:00:39.771Z,59.22
2019-01-02T06:03:08.879Z,59.02
2019-01-02T06:05:40.047Z,59.20
2019-01-02T06:08:11.341Z,59.07
2019-01-02T06:10:42.488Z,59.06
2019-01-02T06:13:13.692Z,58.95
2019-01-02T06:15:44.921Z,59.31
2019-01-02T06:18:16.189Z,59.47
2019-01-02T06:20:47.387Z,59.47
2019-01-02T06:23:18.589Z,59.50
2019-01-02T06:25:50.982Z,59.50
2019-01-02T06:28:22.251Z,59.41
2019-01-02T06:30:53.522Z,59.40
2019-01-02T06:33:24.786Z,59.53
2019-01-02T06:35:56.038Z,59.65
2019-01-02T06:38:27.260Z,59.68
2019-01-02T06:40:58.463Z,59.39
2019-01-02T06:43:29.646Z,59.59
2019-01-02T06:46:00.905Z,59.46
2019-01-02T06:48:32.166Z,59.70
2019-01-02T06:51:03.372Z,59.62
2019-01-02T06:53:34.617Z,59.60
2019-01-02T06:56:05.976Z,59.66
2019-01-02T06:58:37.167Z,59.51
2019-01-02T07:01:08.613Z,59.66
2019-01-02T07:03:39.900Z,59.56
2019-01-02T07:06:11.028Z,59.53
2019-01-02T07:08:42.372Z,59.90
2019-01-02T07:11:13.537Z,59.80
2019-01-02T07:13:44.715Z,59.61
2019-01-02T07:16:16.116Z,59.80
2019-01-02T07:18:47.277Z,59.83
2019-01-02T07:21:18.547Z,59.99
2019-01-02T07:23:49.809Z,59.98
2019-01-02T07:26:21.034Z,60.04
2019-01-02T07:28:52.195Z,59.95
2019-01-02T07:31:23.411Z,59.96
2019-01-02T07:34:10.744Z,59.96
2019-01-02T07:37:19.192Z,60.00
2019-01-02T07:40:18.427Z,59.92
2019-01-02T07:43:29.670Z,59.71
2019-01-02T07:46:35.159Z,59.79
2019-01-02T07:49:27.456Z,59.67
2019-01-02T07:52:24.573Z,59.67
2019-01-02T07:55:36.021Z,59.69
2019-01-02T07:58:39.679Z,59.89
2019-01-02T08:01:47.023Z,59.79
2019-01-02T08:05:06.428Z,59.69
2019-01-02T08:08:12.102Z,59.71
2019-01-02T08:11:12.496Z,59.66
2019-01-02T08:15:03.014Z,59.66
2019-01-02T08:18:07.062Z,59.82
2019-01-02T08:21:40.501Z,59.73
2019-01-02T08:24:33.493Z,59.91
2019-01-02T08:27:50.840Z,59.68
2019-01-02T08:31:10.985Z,59.36
2019-01-02T08:34:19.376Z,59.53
2019-01-02T08:37:39.502Z,59.63
2019-01-02T08:40:40.113Z,59.49
2019-01-02T08:43:30.376Z,59.05
2019-01-02T08:46:43.907Z,59.05
2019-01-02T08:49:51.818Z,59.25
2019-01-02T08:53:00.047Z,59.37
2019-01-02T08:56:03.249Z,58.99
2019-01-02T08:59:08.408Z,59.11
2019-01-02T09:02:25.648Z,59.10
2019-01-02T09:05:41.124Z,59.49
2019-01-02T09:08:56.333Z,59.49
2019-01-02T09:12:05.300Z,59.63
2019-01-02T09:15:29.816Z,59.84
2019-01-02T09:18:42.241Z,59.91
2019-01-02T09:21:50.920Z,59.87
2019-01-02T09:24:55.674Z,59.93
2019-01-02T09:28:11.612Z,60.05
2019-01-02T09:31:08.690Z,59.87
2019-01-02T09:34:19.139Z,59.90
2019-01-02T09:37:27.625Z,59.93
2019-01-02T09:40:45.668Z,59.89
2019-01-02T09:44:05.190Z,59.48
2019-01-02T09:47:29.676Z,59.78
2019-01-02T09:50:25.611Z,59.39
2019-01-02T09:53:20.274Z,59.60
2019-01-02T09:56:38.701Z,59.64
2019-01-02T10:00:07.441Z,59.77
2019-01-02T10:03:14.446Z,59.68
2019-01-02T10:06:23.924Z,59.41
2019-01-02T10:09:26.416Z,59.27
2019-01-02T10:12:38.765Z,59.18
2019-01-02T10:15:39.681Z,58.79
2019-01-02T10:18:47.948Z,58.57
2019-01-02T10:22:03.887Z,58.87
2019-01-02T10:25:19.802Z,58.13
2019-01-02T10:28:37.162Z,57.90
2019-01-02T10:31:48.920Z,58.12
2019-01-02T10:34:54.541Z,58.25
2019-01-02T10:38:01.564Z,57.39
2019-01-02T10:41:04.500Z,57.31
2019-01-02T10:44:31.884Z,57.91
2019-01-02T10:47:39.927Z,57.32
2019-01-02T10:50:32.778Z,57.50
2019-01-02T10:53:33.955Z,56.99
2019-01-02T10:56:25.287Z,57.04
2019-01-02T10:59:35.664Z,56.48
2019-01-02T11:02:33.404Z,56.56
2019-01-02T11:05:53.117Z,56.00
2019-01-02T11:08:42.951Z,55.53
2019-01-02T11:11:54.446Z,56.09
2019-01-02T11:15:14.877Z,55.82
2019-01-02T11:18:41.047Z,55.26
2019-01-02T11:21:52.225Z,55.16
2019-01-02T11:25:10.558Z,55.46
2019-01-02T11:28:20.133Z,55.81
2019-01-02T11:31:31.102Z,55.68
2019-01-02T11:34:39.603Z,55.55
2019-01-02T11:37:40.348Z,55.20
2019-01-02T11:40:58.749Z,55.43
2019-01-02T11:44:32.618Z,55.41
2019-01-02T11:47:03.902Z,54.99
2019-01-02T11:49:35.206Z,54.34
2019-01-02T11:52:06.384Z,54.39
2019-01-02T11:54:37.782Z,54.44
2019-01-02T11:57:09.085Z,54.74
2019-01-02T11:59:40.288Z,54.76
2019-01-02T12:02:11.512Z,54.15
2019-01-02T12:04:42.738Z,53.55
2019-01-02T12:07:13.864Z,54.36
2019-01-02T12:09:45.058Z,53.98
2019-01-02T12:12:16.254Z,54.40
2019-01-02T12:14:47.473Z,54.67
2019-01-02T12:17:18.879Z,54.17
2019-01-02T12:19:50.023Z,53.70
2019-01-02T12:22:21.222Z,53.79
2019-01-02T12:24:52.473Z,53.46
2019-01-02T12:27:23.683Z,53.27
2019-01-02T12:29:55.083Z,53.70
2019-01-02T12:32:26.260Z,53.13
2019-01-02T12:34:57.453Z,52.93
2019-01-02T12:37:28.719Z,52.21
2019-01-02T12:40:00.175Z,52.93
2019-01-02T12:42:31.621Z,53.01
2019-01-02T12:45:03.083Z,53.02
2019-01-02T12:47:34.517Z,52.54
2019-01-02T12:50:07.778Z,52.41
2019-01-02T12:52:39.554Z,51.95
2019-01-02T12:55:11.052Z,51.92
2019-01-02T12:57:42.405Z,52.29
2019-01-02T13:00:14.818Z,52.76
2019-01-02T13:03:15.569Z,52.65
2019-01-02T13:06:17.920Z,52.81
2019-01-02T13:09:29.379Z,52.82
2019-01-02T13:12:43.523Z,52.90
2019-01-02T13:15:51.339Z,52.45
2019-01-02T13:18:50.587Z,52.02
2019-01-02T13:22:06.146Z,52.09
2019-01-02T13:25:01.935Z,52.93
2019-01-02T13:28:04.609Z,54.72
2019-01-02T13:31:38.197Z,55.55
2019-01-02T13:35:08.677Z,55.98
2019-01-02T13:37:53.102Z,56.42
2019-01-02T13:41:07.235Z,56.71
2019-01-02T13:43:53.266Z,56.72
2019-01-02T13:46:38.172Z,56.84
2019-01-02T13:49:40.871Z,56.80
2019-01-02T13:52:12.055Z,56.55
2019-01-02T13:54:43.276Z,56.61
2019-01-02T13:57:14.478Z,56.83
2019-01-02T13:59:45.671Z,57.02
2019-01-02T14:02:16.877Z,56.99
2019-01-02T14:04:48.115Z,57.20
2019-01-02T14:07:19.490Z,57.05
2019-01-02T14:09:50.802Z,56.97
2019-01-02T14:12:21.975Z,57.07
2019-01-02T14:14:54.256Z,56.81
2019-01-02T14:17:25.472Z,56.64
2019-01-02T14:19:56.683Z,56.68
2019-01-02T14:22:27.885Z,56.82
2019-01-02T14:24:59.177Z,56.69
2019-01-02T14:27:30.429Z,56.61
2019-01-02T14:30:01.649Z,56.29
2019-01-02T14:32:32.872Z,56.50
2019-01-02T14:35:04.154Z,56.55
2019-01-02T14:37:35.447Z,56.51
2019-01-02T14:40:06.832Z,56.61
2019-01-02T14:42:38.033Z,56.53
2019-01-02T14:45:09.290Z,56.04
2019-01-02T14:47:40.376Z,56.07
2019-01-02T14:50:11.633Z,56.09
2019-01-02T14:52:43.331Z,56.19
2019-01-02T14:55:15.701Z,55.91
2019-01-02T14:57:46.977Z,55.58
2019-01-02T15:00:18.239Z,54.99
2019-01-02T15:02:49.471Z,55.07
2019-01-02T15:05:20.710Z,54.87
2019-01-02T15:07:51.984Z,54.70
2019-01-02T15:10:23.120Z,54.36
2019-01-02T15:12:54.395Z,54.38
2019-01-02T15:15:26.547Z,54.38
2019-01-02T15:17:57.797Z,53.78
2019-01-02T15:20:28.971Z,53.53
2019-01-02T15:23:00.142Z,54.09
2019-01-02T15:25:31.321Z,54.26
2019-01-02T15:28:02.548Z,54.17
2019-01-02T15:30:33.702Z,53.67
2019-01-02T15:33:04.863Z,53.38
2019-01-02T15:35:36.060Z,53.70
2019-01-02T15:38:07.195Z,53.51
2019-01-02T15:40:38.399Z,53.23
2019-01-02T15:43:09.607Z,53.09
2019-01-02T15:45:40.867Z,53.49
2019-01-02T15:48:12.049Z,52.98
2019-01-02T15:50:43.260Z,53.05
2019-01-02T15:53:14.425Z,52.94
2019-01-02T15:55:45.609Z,53.29
2019-01-02T15:58:16.979Z,52.73
2019-01-02T16:00:48.183Z,52.99
2019-01-02T16:03:19.367Z,53.00
2019-01-02T16:05:50.683Z,53.31
2019-01-02T16:08:22.014Z,53.31
2019-01-02T16:10:53.260Z,53.42
2019-01-02T16:13:24.421Z,53.17
2019-01-02T16:15:55.632Z,53.38
2019-01-02T16:18:26.865Z,53.03
2019-01-02T16:20:58.091Z,52.96
2019-01-02T16:23:29.392Z,52.71
2019-01-02T16:26:00.700Z,52.80
2019-01-02T16:28:31.969Z,52.80
2019-01-02T16:31:04.086Z,52.90
2019-01-02T16:33:35.594Z,53.21
2019-01-02T16:36:06.986Z,53.21
2019-01-02T16:38:38.169Z,52.66
2019-01-02T16:41:09.452Z,52.87
2019-01-02T16:43:40.768Z,52.87
2019-01-02T16:46:11.924Z,53.07
2019-01-02T16:48:43.073Z,52.98
2019-01-02T16:51:14.259Z,53.05
2019-01-02T16:53:45.511Z,52.45
2019-01-02T16:56:16.695Z,52.45
2019-01-02T16:58:48.916Z,52.55
2019-01-02T17:01:20.063Z,52.67
2019-01-02T17:03:51.308Z,52.80
2019-01-02T17:06:22.491Z,52.80
2019-01-02T17:08:53.751Z,52.75
2019-01-02T17:11:26.080Z,52.65
2019-01-02T17:13:57.439Z,52.97
2019-01-02T17:16:28.716Z,52.86
2019-01-02T17:19:00.023Z,53.35
2019-01-02T17:21:31.240Z,53.19
2019-01-02T17:24:02.583Z,53.19
2019-01-02T17:26:34.786Z,53.01
2019-01-02T17:29:05.963Z,53.06
2019-01-02T17:31:37.170Z,53.06
2019-01-02T17:34:08.350Z,52.81
2019-01-02T17:36:39.572Z,52.68
2019-01-02T17:39:10.687Z,52.80
2019-01-02T17:41:42.103Z,52.98
2019-01-02T17:44:13.302Z,52.67
2019-01-02T17:46:44.569Z,53.15
2019-01-02T17:49:15.679Z,53.01
2019-01-02T17:51:46.868Z,53.23
2019-01-02T17:54:17.958Z,53.23
2019-01-02T17:56:49.300Z,52.92
2019-01-02T17:59:20.506Z,52.92
2019-01-02T18:01:51.621Z,53.06
2019-01-02T18:04:22.911Z,53.06
2019-01-02T18:06:54.131Z,53.21
2019-01-02T18:09:25.418Z,53.20
2019-01-02T18:11:56.675Z,53.25
2019-01-02T18:14:27.866Z,53.25
2019-01-02T18:16:59.098Z,53.27
2019-01-02T18:19:30.299Z,53.45
2019-01-02T18:22:01.503Z,53.45
2019-01-02T18:24:32.691Z,53.36
2019-01-02T18:27:03.866Z,53.22
2019-01-02T18:29:35.175Z,53.33
2019-01-02T18:32:06.372Z,53.33
2019-01-02T18:34:37.995Z,52.84
2019-01-02T18:37:09.146Z,52.84
2019-01-02T18:39:40.747Z,53.33
2019-01-02T18:42:12.160Z,53.60
2019-01-02T18:44:43.371Z,53.62
2019-01-02T18:47:14.642Z,53.52
2019-01-02T18:49:45.821Z,53.52
2019-01-02T18:52:18.222Z,53.66
2019-01-02T18:54:49.413Z,53.62
2019-01-02T18:57:20.611Z,53.67
2019-01-02T18:59:51.842Z,53.67
2019-01-02T19:02:23.088Z,53.53
2019-01-02T19:04:54.353Z,53.79
2019-01-02T19:07:25.634Z,53.79
2019-01-02T19:09:56.932Z,54.00
2019-01-02T19:12:28.297Z,53.90
2019-01-02T19:14:59.794Z,54.09
2019-01-02T19:17:31.101Z,54.33
2019-01-02T19:20:02.591Z,54.33
2019-01-02T19:22:34.155Z,54.51
2019-01-02T19:25:05.380Z,54.29
2019-01-02T19:27:36.609Z,54.29
2019-01-02T19:30:09.038Z,54.25
2019-01-02T19:32:40.287Z,54.49
2019-01-02T19:35:11.568Z,54.49
2019-01-02T19:37:44.165Z,54.39
2019-01-02T19:40:16.116Z,54.56
2019-01-02T19:42:48.570Z,54.51
2019-01-02T19:45:20.055Z,54.51
2019-01-02T19:47:51.284Z,54.57
2019-01-02T19:50:22.760Z,54.69
2019-01-02T19:52:54.797Z,54.69
2019-01-02T19:55:26.153Z,54.56
2019-01-02T19:57:57.359Z,54.39
2019-01-02T20:00:28.499Z,54.63
2019-01-02T20:02:59.641Z,54.79
2019-01-02T20:05:30.854Z,54.88
2019-01-02T20:08:01.979Z,54.87
2019-01-02T20:10:33.238Z,54.99
2019-01-02T20:13:04.571Z,54.93
2019-01-02T20:15:35.821Z,54.95
2019-01-02T20:18:07.029Z,55.02
2019-01-02T20:20:38.249Z,54.90
2019-01-02T20:23:09.509Z,54.80
2019-01-02T20:25:40.801Z,55.04
2019-01-02T20:28:13.207Z,55.11
2019-01-02T20:30:45.618Z,55.08
2019-01-02T20:33:17.967Z,54.98
2019-01-02T20:35:50.267Z,55.09
2019-01-02T20:38:21.748Z,55.18
2019-01-02T20:40:53.257Z,55.18
2019-01-02T20:43:24.546Z,55.18
2019-01-02T20:45:56.025Z,55.20
2019-01-02T20:48:27.314Z,55.02
2019-01-02T20:50:58.914Z,55.25
2019-01-02T20:53:30.174Z,55.27
2019-01-02T20:56:01.504Z,55.35
2019-01-02T20:58:32.853Z,55.45
2019-01-02T21:01:04.342Z,55.34
2019-01-02T21:03:35.611Z,55.35
2019-01-02T21:06:07.388Z,55.28
2019-01-02T21:08:38.747Z,55.39
2019-01-02T21:11:10.066Z,55.21
2019-01-02T21:13:41.518Z,55.45
2019-01-02T21:16:12.764Z,55.49
2019-01-02T21:18:45.017Z,55.60
2019-01-02T21:21:17.311Z,55.55
2019-01-02T21:23:48.552Z,55.63
2019-01-02T21:26:19.745Z,55.69
2019-01-02T21:28:51.014Z,55.57
2019-01-02T21:31:23.377Z,55.78
2019-01-02T21:33:54.549Z,55.77
2019-01-02T21:36:25.828Z,55.66
2019-01-02T21:38:58.011Z,55.83
2019-01-02T21:41:29.219Z,55.84
2019-01-02T21:44:00.839Z,55.67
2019-01-02T21:46:32.266Z,55.74
2019-01-02T21:49:03.508Z,55.92
2019-01-02T21:51:34.824Z,55.91
2019-01-02T21:54:06.073Z,55.96
2019-01-02T21:56:37.244Z,55.78
2019-01-02T21:59:08.535Z,55.76
2019-01-02T22:01:39.783Z,55.86
2019-01-02T22:04:11.068Z,55.92
2019-01-02T22:06:42.340Z,56.01
2019-01-02T22:09:13.522Z,55.90
2019-01-02T22:11:44.707Z,56.05
2019-01-02T22:14:15.924Z,55.94
2019-01-02T22:16:47.109Z,56.20
2019-01-02T22:19:18.424Z,56.07
2019-01-02T22:21:49.638Z,56.16
2019-01-02T22:24:20.863Z,56.17
2019-01-02T22:26:52.070Z,56.14
2019-01-02T22:29:23.353Z,56.03
2019-01-02T22:31:54.500Z,56.24
2019-01-02T22:34:25.800Z,56.27
2019-01-02T22:36:57.028Z,56.26
2019-01-02T22:39:28.331Z,56.34
2019-01-02T22:41:59.517Z,56.34
2019-01-02T22:44:30.740Z,56.45
2019-01-02T22:47:02.016Z,56.55
2019-01-02T22:49:33.187Z,56.50
2019-01-02T22:52:04.404Z,56.53
2019-01-02T22:54:35.666Z,56.60
2019-01-02T22:57:06.964Z,56.60
2019-01-02T22:59:38.276Z,56.34
2019-01-02T23:02:15.411Z,56.29
2019-01-02T23:05:16.935Z,56.33
2019-01-02T23:08:19.222Z,56.36
2019-01-02T23:11:10.272Z,56.29
2019-01-02T23:14:08.799Z,56.36
2019-01-02T23:16:58.046Z,56.45
2019-01-02T23:19:54.970Z,56.33
2019-01-02T23:22:45.121Z,56.38
2019-01-02T23:25:34.008Z,56.45
2019-01-02T23:28:22.948Z,56.44
2019-01-02T23:31:31.279Z,56.50
2019-01-02T23:34:21.546Z,56.55
2019-01-02T23:37:11.685Z,56.64
2019-01-02T23:40:00.753Z,56.67
2019-01-02T23:42:59.854Z,56.63
2019-01-02T23:45:52.828Z,56.69
2019-01-02T23:48:36.102Z,56.67
2019-01-02T23:51:38.641Z,56.73
2019-01-02T23:54:27.576Z,56.76
2019-01-02T23:57:26.877Z,56.72
